sensor_id;sensor_type;location;lat;lon;timestamp;P1;durP1;ratioP1;P2;durP2;ratioP2
39266;SDS011;24967;51.154;13.812;2022-10-31T00:00:17;21.23;;;12.10;;
39266;SDS011;24967;51.154;13.812;2022-10-31T00:02:45;19.42;;;11.45;;
39266;SDS011;24967;51.154;13.812;2022-10-31T00:05:11;18.33;;;11.98;;
39266;SDS011;24967;51.154;13.812;2022-10-31T00:07:38;18.10;;;11.50;;
39266;SDS011;24967;51.154;13.812;2022-10-31T00:10:05;23.52;;;12.65;;
39266;SDS011;24967;51.154;13.812;2022-10-31T00:12:32;18.77;;;12.35;;
39266;SDS011;24967;51.154;13.812;2022-10-31T00:14:59;21.52;;;12.38;;
39266;SDS011;24967;51.154;13.812;2022-10-31T00:17:25;21.85;;;12.68;;
39266;SDS011;24967;51.154;13.812;2022-10-31T00:19:53;21.63;;;12.68;;
39266;SDS011;24967;51.154;13.812;2022-10-31T00:22:20;21.98;;;13.18;;
39266;SDS011;24967;51.154;13.812;2022-10-31T00:24:46;19.98;;;12.77;;
39266;SDS011;24967;51.154;13.812;2022-10-31T00:27:13;21.48;;;12.43;;
39266;SDS011;24967;51.154;13.812;2022-10-31T00:29:39;25.70;;;13.32;;
39266;SDS011;24967;51.154;13.812;2022-10-31T00:32:06;18.23;;;12.18;;
39266;SDS011;24967;51.154;13.812;2022-10-31T00:34:33;21.02;;;11.60;;
39266;SDS011;24967;51.154;13.812;2022-10-31T00:37:01;16.52;;;10.98;;
39266;SDS011;24967;51.154;13.812;2022-10-31T00:39:27;18.05;;;11.48;;
39266;SDS011;24967;51.154;13.812;2022-10-31T00:41:54;15.75;;;10.93;;
39266;SDS011;24967;51.154;13.812;2022-10-31T00:44:20;20.88;;;10.57;;
39266;SDS011;24967;51.154;13.812;2022-10-31T00:46:47;16.52;;;10.00;;
39266;SDS011;24967;51.154;13.812;2022-10-31T00:49:13;23.20;;;10.23;;
39266;SDS011;24967;51.154;13.812;2022-10-31T00:51:40;19.13;;;10.88;;
39266;SDS011;24967;51.154;13.812;2022-10-31T00:54:08;18.42;;;10.23;;
39266;SDS011;24967;51.154;13.812;2022-10-31T00:56:35;18.33;;;11.13;;
39266;SDS011;24967;51.154;13.812;2022-10-31T00:59:01;17.88;;;10.05;;
39266;SDS011;24967;51.154;13.812;2022-10-31T01:01:28;19.33;;;9.82;;
39266;SDS011;24967;51.154;13.812;2022-10-31T01:03:55;19.48;;;9.27;;
39266;SDS011;24967;51.154;13.812;2022-10-31T01:06:22;15.68;;;9.38;;
39266;SDS011;24967;51.154;13.812;2022-10-31T01:08:48;15.48;;;9.00;;
39266;SDS011;24967;51.154;13.812;2022-10-31T01:11:17;16.65;;;9.52;;
39266;SDS011;24967;51.154;13.812;2022-10-31T01:13:46;21.35;;;10.18;;
39266;SDS011;24967;51.154;13.812;2022-10-31T01:16:14;16.42;;;9.00;;
39266;SDS011;24967;51.154;13.812;2022-10-31T01:18:43;14.82;;;9.00;;
39266;SDS011;24967;51.154;13.812;2022-10-31T01:21:11;15.20;;;9.38;;
39266;SDS011;24967;51.154;13.812;2022-10-31T01:23:38;17.23;;;10.13;;
39266;SDS011;24967;51.154;13.812;2022-10-31T01:26:07;16.98;;;9.25;;
39266;SDS011;24967;51.154;13.812;2022-10-31T01:28:37;16.15;;;8.90;;
39266;SDS011;24967;51.154;13.812;2022-10-31T01:31:06;12.27;;;8.45;;
39266;SDS011;24967;51.154;13.812;2022-10-31T01:33:34;14.18;;;8.90;;
39266;SDS011;24967;51.154;13.812;2022-10-31T01:36:01;13.48;;;8.32;;
39266;SDS011;24967;51.154;13.812;2022-10-31T01:38:37;17.27;;;8.70;;
39266;SDS011;24967;51.154;13.812;2022-10-31T01:41:03;16.75;;;9.77;;
39266;SDS011;24967;51.154;13.812;2022-10-31T01:43:42;18.20;;;9.77;;
39266;SDS011;24967;51.154;13.812;2022-10-31T01:46:10;16.52;;;8.70;;
39266;SDS011;24967;51.154;13.812;2022-10-31T01:48:37;16.35;;;9.20;;
39266;SDS011;24967;51.154;13.812;2022-10-31T01:51:05;13.77;;;8.50;;
39266;SDS011;24967;51.154;13.812;2022-10-31T01:53:33;15.20;;;9.02;;
39266;SDS011;24967;51.154;13.812;2022-10-31T01:56:02;14.40;;;8.88;;
39266;SDS011;24967;51.154;13.812;2022-10-31T01:58:29;14.48;;;9.27;;
39266;SDS011;24967;51.154;13.812;2022-10-31T02:00:58;18.90;;;9.63;;
39266;SDS011;24967;51.154;13.812;2022-10-31T02:03:27;13.87;;;9.60;;
39266;SDS011;24967;51.154;13.812;2022-10-31T02:05:55;17.83;;;9.52;;
39266;SDS011;24967;51.154;13.812;2022-10-31T02:08:25;18.55;;;10.15;;
39266;SDS011;24967;51.154;13.812;2022-10-31T02:10:54;16.38;;;9.65;;
39266;SDS011;24967;51.154;13.812;2022-10-31T02:13:22;13.75;;;8.95;;
39266;SDS011;24967;51.154;13.812;2022-10-31T02:15:49;16.08;;;9.55;;
39266;SDS011;24967;51.154;13.812;2022-10-31T02:18:20;19.05;;;9.23;;
39266;SDS011;24967;51.154;13.812;2022-10-31T02:20:51;17.47;;;8.60;;
39266;SDS011;24967;51.154;13.812;2022-10-31T02:23:35;16.05;;;9.70;;
39266;SDS011;24967;51.154;13.812;2022-10-31T02:26:21;18.67;;;9.40;;
39266;SDS011;24967;51.154;13.812;2022-10-31T02:29:15;17.85;;;9.13;;
39266;SDS011;24967;51.154;13.812;2022-10-31T02:32:01;15.55;;;9.13;;
39266;SDS011;24967;51.154;13.812;2022-10-31T02:34:34;15.45;;;9.98;;
39266;SDS011;24967;51.154;13.812;2022-10-31T02:37:06;15.27;;;9.27;;
39266;SDS011;24967;51.154;13.812;2022-10-31T02:39:39;18.15;;;9.40;;
39266;SDS011;24967;51.154;13.812;2022-10-31T02:42:14;19.60;;;10.38;;
39266;SDS011;24967;51.154;13.812;2022-10-31T02:44:45;19.85;;;9.50;;
39266;SDS011;24967;51.154;13.812;2022-10-31T02:47:19;19.38;;;10.05;;
39266;SDS011;24967;51.154;13.812;2022-10-31T02:49:51;16.90;;;9.55;;
39266;SDS011;24967;51.154;13.812;2022-10-31T02:52:23;17.05;;;9.68;;
39266;SDS011;24967;51.154;13.812;2022-10-31T03:00:43;16.83;;;9.73;;
39266;SDS011;24967;51.154;13.812;2022-10-31T03:03:21;17.20;;;10.50;;
39266;SDS011;24967;51.154;13.812;2022-10-31T03:05:57;17.60;;;9.32;;
39266;SDS011;24967;51.154;13.812;2022-10-31T03:08:29;16.70;;;9.65;;
39266;SDS011;24967;51.154;13.812;2022-10-31T03:11:01;16.67;;;10.00;;
39266;SDS011;24967;51.154;13.812;2022-10-31T03:13:32;14.68;;;9.93;;
39266;SDS011;24967;51.154;13.812;2022-10-31T03:16:03;14.68;;;9.52;;
39266;SDS011;24967;51.154;13.812;2022-10-31T03:18:37;13.63;;;8.70;;
39266;SDS011;24967;51.154;13.812;2022-10-31T03:23:34;16.35;;;9.43;;
39266;SDS011;24967;51.154;13.812;2022-10-31T03:26:04;13.52;;;8.20;;
39266;SDS011;24967;51.154;13.812;2022-10-31T03:28:34;13.15;;;8.50;;
39266;SDS011;24967;51.154;13.812;2022-10-31T03:31:05;13.30;;;8.30;;
39266;SDS011;24967;51.154;13.812;2022-10-31T03:33:36;12.90;;;7.97;;
39266;SDS011;24967;51.154;13.812;2022-10-31T03:36:05;12.30;;;8.25;;
39266;SDS011;24967;51.154;13.812;2022-10-31T03:38:35;14.32;;;8.70;;
39266;SDS011;24967;51.154;13.812;2022-10-31T03:41:02;21.00;;;9.10;;
39266;SDS011;24967;51.154;13.812;2022-10-31T03:43:32;19.75;;;9.65;;
39266;SDS011;24967;51.154;13.812;2022-10-31T03:46:03;20.60;;;8.57;;
39266;SDS011;24967;51.154;13.812;2022-10-31T03:48:31;14.05;;;8.48;;
39266;SDS011;24967;51.154;13.812;2022-10-31T03:51:04;12.85;;;8.80;;
39266;SDS011;24967;51.154;13.812;2022-10-31T03:53:36;13.32;;;8.60;;
39266;SDS011;24967;51.154;13.812;2022-10-31T03:56:09;13.55;;;8.60;;
39266;SDS011;24967;51.154;13.812;2022-10-31T03:58:42;14.57;;;8.32;;
39266;SDS011;24967;51.154;13.812;2022-10-31T04:01:14;14.02;;;8.25;;
39266;SDS011;24967;51.154;13.812;2022-10-31T04:03:43;15.35;;;8.65;;
39266;SDS011;24967;51.154;13.812;2022-10-31T04:06:12;18.17;;;8.77;;
39266;SDS011;24967;51.154;13.812;2022-10-31T04:08:44;13.50;;;8.93;;
39266;SDS011;24967;51.154;13.812;2022-10-31T04:11:14;16.13;;;8.75;;
39266;SDS011;24967;51.154;13.812;2022-10-31T04:13:44;21.42;;;10.23;;
39266;SDS011;24967;51.154;13.812;2022-10-31T04:16:13;15.48;;;9.57;;
39266;SDS011;24967;51.154;13.812;2022-10-31T04:18:41;14.93;;;8.77;;
39266;SDS011;24967;51.154;13.812;2022-10-31T04:21:08;17.17;;;9.07;;
39266;SDS011;24967;51.154;13.812;2022-10-31T04:23:36;14.55;;;8.73;;
39266;SDS011;24967;51.154;13.812;2022-10-31T04:26:03;14.52;;;9.13;;
39266;SDS011;24967;51.154;13.812;2022-10-31T04:28:29;17.98;;;8.40;;
39266;SDS011;24967;51.154;13.812;2022-10-31T04:30:57;14.82;;;8.23;;
39266;SDS011;24967;51.154;13.812;2022-10-31T04:33:24;17.33;;;8.48;;
39266;SDS011;24967;51.154;13.812;2022-10-31T04:35:51;11.35;;;7.95;;
39266;SDS011;24967;51.154;13.812;2022-10-31T04:38:17;14.68;;;8.85;;
39266;SDS011;24967;51.154;13.812;2022-10-31T04:40:45;16.67;;;8.85;;
39266;SDS011;24967;51.154;13.812;2022-10-31T04:43:12;12.30;;;8.75;;
39266;SDS011;24967;51.154;13.812;2022-10-31T04:45:39;12.27;;;8.00;;
39266;SDS011;24967;51.154;13.812;2022-10-31T04:48:05;16.00;;;8.32;;
39266;SDS011;24967;51.154;13.812;2022-10-31T04:50:32;14.25;;;8.35;;
39266;SDS011;24967;51.154;13.812;2022-10-31T04:52:58;14.48;;;7.85;;
39266;SDS011;24967;51.154;13.812;2022-10-31T04:55:25;13.98;;;8.57;;
39266;SDS011;24967;51.154;13.812;2022-10-31T04:57:53;15.38;;;8.48;;
39266;SDS011;24967;51.154;13.812;2022-10-31T05:00:20;13.10;;;7.80;;
39266;SDS011;24967;51.154;13.812;2022-10-31T05:02:48;11.70;;;8.05;;
39266;SDS011;24967;51.154;13.812;2022-10-31T05:05:18;11.55;;;7.93;;
39266;SDS011;24967;51.154;13.812;2022-10-31T05:07:46;15.25;;;8.63;;
39266;SDS011;24967;51.154;13.812;2022-10-31T05:10:14;14.20;;;8.00;;
39266;SDS011;24967;51.154;13.812;2022-10-31T05:12:46;14.57;;;7.85;;
39266;SDS011;24967;51.154;13.812;2022-10-31T05:15:15;13.33;;;8.03;;
39266;SDS011;24967;51.154;13.812;2022-10-31T05:17:43;14.88;;;9.23;;
39266;SDS011;24967;51.154;13.812;2022-10-31T05:20:09;11.32;;;7.35;;
39266;SDS011;24967;51.154;13.812;2022-10-31T05:22:37;11.38;;;7.35;;
39266;SDS011;24967;51.154;13.812;2022-10-31T05:25:07;10.02;;;7.32;;
39266;SDS011;24967;51.154;13.812;2022-10-31T05:27:34;9.75;;;7.75;;
39266;SDS011;24967;51.154;13.812;2022-10-31T05:30:01;11.20;;;7.28;;
39266;SDS011;24967;51.154;13.812;2022-10-31T05:32:29;10.55;;;6.35;;
39266;SDS011;24967;51.154;13.812;2022-10-31T05:34:55;9.45;;;6.32;;
39266;SDS011;24967;51.154;13.812;2022-10-31T05:37:22;9.80;;;6.55;;
39266;SDS011;24967;51.154;13.812;2022-10-31T05:39:49;9.48;;;6.22;;
39266;SDS011;24967;51.154;13.812;2022-10-31T05:42:15;14.10;;;7.72;;
39266;SDS011;24967;51.154;13.812;2022-10-31T05:44:42;11.73;;;6.88;;
39266;SDS011;24967;51.154;13.812;2022-10-31T05:47:08;8.32;;;6.00;;
39266;SDS011;24967;51.154;13.812;2022-10-31T05:49:36;10.40;;;6.03;;
39266;SDS011;24967;51.154;13.812;2022-10-31T05:52:03;9.48;;;5.78;;
39266;SDS011;24967;51.154;13.812;2022-10-31T05:54:30;7.72;;;5.47;;
39266;SDS011;24967;51.154;13.812;2022-10-31T05:56:56;11.40;;;6.18;;
39266;SDS011;24967;51.154;13.812;2022-10-31T05:59:23;9.00;;;6.22;;
39266;SDS011;24967;51.154;13.812;2022-10-31T06:01:50;10.63;;;5.90;;
39266;SDS011;24967;51.154;13.812;2022-10-31T06:04:16;8.48;;;5.93;;
39266;SDS011;24967;51.154;13.812;2022-10-31T06:06:44;11.95;;;6.53;;
39266;SDS011;24967;51.154;13.812;2022-10-31T06:09:11;13.93;;;6.28;;
39266;SDS011;24967;51.154;13.812;2022-10-31T06:11:37;10.98;;;6.97;;
39266;SDS011;24967;51.154;13.812;2022-10-31T06:14:04;10.68;;;6.70;;
39266;SDS011;24967;51.154;13.812;2022-10-31T06:16:31;9.48;;;6.38;;
39266;SDS011;24967;51.154;13.812;2022-10-31T06:18:58;10.50;;;6.47;;
39266;SDS011;24967;51.154;13.812;2022-10-31T06:21:25;10.50;;;6.43;;
39266;SDS011;24967;51.154;13.812;2022-10-31T06:23:53;10.07;;;7.03;;
39266;SDS011;24967;51.154;13.812;2022-10-31T06:26:20;12.95;;;7.50;;
39266;SDS011;24967;51.154;13.812;2022-10-31T06:28:46;10.80;;;7.07;;
39266;SDS011;24967;51.154;13.812;2022-10-31T06:31:13;11.15;;;7.30;;
39266;SDS011;24967;51.154;13.812;2022-10-31T06:33:40;12.73;;;7.00;;
39266;SDS011;24967;51.154;13.812;2022-10-31T06:36:07;11.40;;;6.57;;
39266;SDS011;24967;51.154;13.812;2022-10-31T06:38:34;23.73;;;6.43;;
39266;SDS011;24967;51.154;13.812;2022-10-31T06:41:03;10.57;;;5.85;;
39266;SDS011;24967;51.154;13.812;2022-10-31T06:43:31;10.57;;;5.15;;
39266;SDS011;24967;51.154;13.812;2022-10-31T06:46:01;9.55;;;4.97;;
39266;SDS011;24967;51.154;13.812;2022-10-31T06:48:28;8.10;;;5.03;;
39266;SDS011;24967;51.154;13.812;2022-10-31T06:50:57;8.43;;;5.40;;
39266;SDS011;24967;51.154;13.812;2022-10-31T06:53:23;9.50;;;5.50;;
39266;SDS011;24967;51.154;13.812;2022-10-31T06:55:50;13.45;;;6.10;;
39266;SDS011;24967;51.154;13.812;2022-10-31T06:58:18;8.73;;;5.85;;
39266;SDS011;24967;51.154;13.812;2022-10-31T07:00:44;11.07;;;6.28;;
39266;SDS011;24967;51.154;13.812;2022-10-31T07:03:12;10.23;;;6.30;;
39266;SDS011;24967;51.154;13.812;2022-10-31T07:05:40;9.35;;;6.47;;
39266;SDS011;24967;51.154;13.812;2022-10-31T07:08:08;12.07;;;7.05;;
39266;SDS011;24967;51.154;13.812;2022-10-31T07:10:38;10.07;;;5.88;;
39266;SDS011;24967;51.154;13.812;2022-10-31T07:13:08;11.55;;;6.78;;
39266;SDS011;24967;51.154;13.812;2022-10-31T07:15:38;11.50;;;6.53;;
39266;SDS011;24967;51.154;13.812;2022-10-31T07:18:07;10.43;;;6.30;;
39266;SDS011;24967;51.154;13.812;2022-10-31T07:20:35;12.77;;;6.72;;
39266;SDS011;24967;51.154;13.812;2022-10-31T07:23:02;10.30;;;6.55;;
39266;SDS011;24967;51.154;13.812;2022-10-31T07:25:29;11.95;;;7.82;;
39266;SDS011;24967;51.154;13.812;2022-10-31T07:27:55;12.45;;;7.45;;
39266;SDS011;24967;51.154;13.812;2022-10-31T07:30:22;15.13;;;8.02;;
39266;SDS011;24967;51.154;13.812;2022-10-31T07:32:50;11.55;;;6.93;;
39266;SDS011;24967;51.154;13.812;2022-10-31T07:35:18;11.88;;;8.05;;
39266;SDS011;24967;51.154;13.812;2022-10-31T07:37:45;16.98;;;8.07;;
39266;SDS011;24967;51.154;13.812;2022-10-31T07:40:12;15.98;;;8.48;;
39266;SDS011;24967;51.154;13.812;2022-10-31T07:42:40;13.32;;;8.02;;
39266;SDS011;24967;51.154;13.812;2022-10-31T07:45:08;13.45;;;7.32;;
39266;SDS011;24967;51.154;13.812;2022-10-31T07:47:38;11.90;;;7.78;;
39266;SDS011;24967;51.154;13.812;2022-10-31T07:50:07;11.40;;;7.88;;
39266;SDS011;24967;51.154;13.812;2022-10-31T07:52:35;10.20;;;7.67;;
39266;SDS011;24967;51.154;13.812;2022-10-31T07:55:02;11.52;;;8.43;;
39266;SDS011;24967;51.154;13.812;2022-10-31T07:57:30;12.68;;;8.30;;
39266;SDS011;24967;51.154;13.812;2022-10-31T07:59:56;11.68;;;8.00;;
39266;SDS011;24967;51.154;13.812;2022-10-31T08:02:23;11.88;;;7.65;;
39266;SDS011;24967;51.154;13.812;2022-10-31T08:04:50;12.55;;;7.90;;
39266;SDS011;24967;51.154;13.812;2022-10-31T08:07:18;10.13;;;8.38;;
39266;SDS011;24967;51.154;13.812;2022-10-31T08:09:45;13.10;;;8.77;;
39266;SDS011;24967;51.154;13.812;2022-10-31T08:12:12;9.63;;;7.82;;
39266;SDS011;24967;51.154;13.812;2022-10-31T08:14:38;10.25;;;7.90;;
39266;SDS011;24967;51.154;13.812;2022-10-31T08:17:05;13.48;;;7.55;;
39266;SDS011;24967;51.154;13.812;2022-10-31T08:19:32;15.43;;;7.60;;
39266;SDS011;24967;51.154;13.812;2022-10-31T08:21:58;10.90;;;7.32;;
39266;SDS011;24967;51.154;13.812;2022-10-31T08:24:26;13.80;;;7.63;;
39266;SDS011;24967;51.154;13.812;2022-10-31T08:26:53;10.23;;;6.65;;
39266;SDS011;24967;51.154;13.812;2022-10-31T08:29:20;10.07;;;7.35;;
39266;SDS011;24967;51.154;13.812;2022-10-31T08:31:46;11.02;;;6.90;;
39266;SDS011;24967;51.154;13.812;2022-10-31T08:34:13;10.75;;;6.78;;
39266;SDS011;24967;51.154;13.812;2022-10-31T08:36:40;11.13;;;6.53;;
39266;SDS011;24967;51.154;13.812;2022-10-31T08:39:08;11.15;;;6.22;;
39266;SDS011;24967;51.154;13.812;2022-10-31T08:41:36;10.65;;;6.05;;
39266;SDS011;24967;51.154;13.812;2022-10-31T08:44:02;8.80;;;5.70;;
39266;SDS011;24967;51.154;13.812;2022-10-31T08:46:29;16.45;;;8.65;;
39266;SDS011;24967;51.154;13.812;2022-10-31T08:48:56;12.48;;;7.45;;
39266;SDS011;24967;51.154;13.812;2022-10-31T08:51:23;9.82;;;5.28;;
39266;SDS011;24967;51.154;13.812;2022-10-31T08:53:50;8.18;;;4.70;;
39266;SDS011;24967;51.154;13.812;2022-10-31T08:56:16;7.70;;;4.80;;
39266;SDS011;24967;51.154;13.812;2022-10-31T08:58:44;6.80;;;5.30;;
39266;SDS011;24967;51.154;13.812;2022-10-31T09:01:11;8.13;;;4.55;;
39266;SDS011;24967;51.154;13.812;2022-10-31T09:03:37;6.18;;;4.25;;
39266;SDS011;24967;51.154;13.812;2022-10-31T09:06:04;12.15;;;4.63;;
39266;SDS011;24967;51.154;13.812;2022-10-31T09:08:33;8.20;;;4.10;;
39266;SDS011;24967;51.154;13.812;2022-10-31T09:11:03;9.57;;;5.30;;
39266;SDS011;24967;51.154;13.812;2022-10-31T09:13:31;7.65;;;4.22;;
39266;SDS011;24967;51.154;13.812;2022-10-31T09:15:59;6.25;;;4.40;;
39266;SDS011;24967;51.154;13.812;2022-10-31T09:18:26;8.55;;;4.50;;
39266;SDS011;24967;51.154;13.812;2022-10-31T09:20:53;10.13;;;4.38;;
39266;SDS011;24967;51.154;13.812;2022-10-31T09:23:23;10.35;;;4.40;;
39266;SDS011;24967;51.154;13.812;2022-10-31T09:25:50;8.82;;;5.07;;
39266;SDS011;24967;51.154;13.812;2022-10-31T09:28:19;6.93;;;4.30;;
39266;SDS011;24967;51.154;13.812;2022-10-31T09:30:47;9.90;;;4.45;;
39266;SDS011;24967;51.154;13.812;2022-10-31T09:33:16;5.38;;;4.05;;
39266;SDS011;24967;51.154;13.812;2022-10-31T09:35:43;11.27;;;5.13;;
39266;SDS011;24967;51.154;13.812;2022-10-31T09:38:10;9.02;;;4.93;;
39266;SDS011;24967;51.154;13.812;2022-10-31T09:40:40;10.48;;;4.90;;
39266;SDS011;24967;51.154;13.812;2022-10-31T09:43:11;8.40;;;4.57;;
39266;SDS011;24967;51.154;13.812;2022-10-31T09:45:43;6.28;;;4.85;;
39266;SDS011;24967;51.154;13.812;2022-10-31T09:48:34;11.40;;;5.25;;
39266;SDS011;24967;51.154;13.812;2022-10-31T09:51:09;9.93;;;5.32;;
39266;SDS011;24967;51.154;13.812;2022-10-31T09:53:41;10.98;;;5.60;;
39266;SDS011;24967;51.154;13.812;2022-10-31T09:56:12;8.75;;;4.57;;
39266;SDS011;24967;51.154;13.812;2022-10-31T09:58:42;8.40;;;4.82;;
39266;SDS011;24967;51.154;13.812;2022-10-31T10:01:16;9.07;;;5.80;;
39266;SDS011;24967;51.154;13.812;2022-10-31T10:03:53;11.27;;;6.00;;
39266;SDS011;24967;51.154;13.812;2022-10-31T10:06:23;14.15;;;6.63;;
39266;SDS011;24967;51.154;13.812;2022-10-31T10:08:53;14.93;;;7.28;;
39266;SDS011;24967;51.154;13.812;2022-10-31T10:11:26;12.85;;;6.43;;
39266;SDS011;24967;51.154;13.812;2022-10-31T10:14:22;9.13;;;5.57;;
39266;SDS011;24967;51.154;13.812;2022-10-31T10:17:06;11.63;;;6.57;;
39266;SDS011;24967;51.154;13.812;2022-10-31T10:19:47;11.57;;;5.70;;
39266;SDS011;24967;51.154;13.812;2022-10-31T10:22:24;10.35;;;5.45;;
39266;SDS011;24967;51.154;13.812;2022-10-31T10:25:01;13.77;;;5.50;;
39266;SDS011;24967;51.154;13.812;2022-10-31T10:27:42;10.73;;;5.53;;
39266;SDS011;24967;51.154;13.812;2022-10-31T10:30:16;14.98;;;6.40;;
39266;SDS011;24967;51.154;13.812;2022-10-31T10:32:45;9.75;;;7.72;;
39266;SDS011;24967;51.154;13.812;2022-10-31T10:37:46;13.40;;;7.30;;
39266;SDS011;24967;51.154;13.812;2022-10-31T10:40:16;16.20;;;7.85;;
39266;SDS011;24967;51.154;13.812;2022-10-31T10:42:50;15.57;;;7.22;;
39266;SDS011;24967;51.154;13.812;2022-10-31T10:45:40;15.90;;;8.65;;
39266;SDS011;24967;51.154;13.812;2022-10-31T10:48:27;14.73;;;7.03;;
39266;SDS011;24967;51.154;13.812;2022-10-31T10:51:04;16.23;;;10.80;;
39266;SDS011;24967;51.154;13.812;2022-10-31T10:53:39;17.67;;;9.00;;
39266;SDS011;24967;51.154;13.812;2022-10-31T10:56:30;14.57;;;9.50;;
39266;SDS011;24967;51.154;13.812;2022-10-31T10:59:04;15.45;;;9.38;;
39266;SDS011;24967;51.154;13.812;2022-10-31T11:01:30;13.65;;;7.03;;
39266;SDS011;24967;51.154;13.812;2022-10-31T11:03:57;15.23;;;8.05;;
39266;SDS011;24967;51.154;13.812;2022-10-31T11:06:25;22.40;;;13.25;;
39266;SDS011;24967;51.154;13.812;2022-10-31T11:08:52;14.40;;;9.10;;
39266;SDS011;24967;51.154;13.812;2022-10-31T11:11:22;12.30;;;7.72;;
39266;SDS011;24967;51.154;13.812;2022-10-31T11:13:54;13.35;;;8.07;;
39266;SDS011;24967;51.154;13.812;2022-10-31T11:16:29;14.45;;;8.57;;
39266;SDS011;24967;51.154;13.812;2022-10-31T11:19:06;21.55;;;8.00;;
39266;SDS011;24967;51.154;13.812;2022-10-31T11:24:12;13.13;;;7.38;;
39266;SDS011;24967;51.154;13.812;2022-10-31T11:26:41;12.68;;;6.95;;
39266;SDS011;24967;51.154;13.812;2022-10-31T11:29:12;11.98;;;6.80;;
39266;SDS011;24967;51.154;13.812;2022-10-31T11:31:40;10.50;;;6.40;;
39266;SDS011;24967;51.154;13.812;2022-10-31T11:34:13;14.50;;;6.50;;
39266;SDS011;24967;51.154;13.812;2022-10-31T11:36:45;12.23;;;6.40;;
39266;SDS011;24967;51.154;13.812;2022-10-31T11:39:15;12.30;;;6.50;;
39266;SDS011;24967;51.154;13.812;2022-10-31T11:44:12;12.00;;;6.07;;
39266;SDS011;24967;51.154;13.812;2022-10-31T11:46:42;10.10;;;5.95;;
39266;SDS011;24967;51.154;13.812;2022-10-31T11:49:13;10.50;;;5.78;;
39266;SDS011;24967;51.154;13.812;2022-10-31T11:51:42;12.60;;;6.30;;
39266;SDS011;24967;51.154;13.812;2022-10-31T11:54:19;14.77;;;6.32;;
39266;SDS011;24967;51.154;13.812;2022-10-31T11:56:48;10.07;;;6.70;;
39266;SDS011;24967;51.154;13.812;2022-10-31T11:59:16;14.90;;;7.35;;
39266;SDS011;24967;51.154;13.812;2022-10-31T12:01:47;15.10;;;8.23;;
39266;SDS011;24967;51.154;13.812;2022-10-31T12:04:15;15.05;;;7.97;;
39266;SDS011;24967;51.154;13.812;2022-10-31T12:06:43;18.95;;;6.90;;
39266;SDS011;24967;51.154;13.812;2022-10-31T12:09:22;14.07;;;7.05;;
39266;SDS011;24967;51.154;13.812;2022-10-31T12:11:54;17.40;;;8.15;;
39266;SDS011;24967;51.154;13.812;2022-10-31T12:17:02;12.63;;;6.33;;
39266;SDS011;24967;51.154;13.812;2022-10-31T12:19:39;12.55;;;6.30;;
39266;SDS011;24967;51.154;13.812;2022-10-31T12:22:13;14.82;;;6.60;;
39266;SDS011;24967;51.154;13.812;2022-10-31T12:24:50;14.43;;;6.78;;
39266;SDS011;24967;51.154;13.812;2022-10-31T12:27:32;12.50;;;5.85;;
39266;SDS011;24967;51.154;13.812;2022-10-31T12:30:15;12.45;;;6.10;;
39266;SDS011;24967;51.154;13.812;2022-10-31T12:32:53;21.00;;;6.68;;
39266;SDS011;24967;51.154;13.812;2022-10-31T12:35:35;22.30;;;6.97;;
39266;SDS011;24967;51.154;13.812;2022-10-31T12:41:09;15.13;;;7.25;;
39266;SDS011;24967;51.154;13.812;2022-10-31T12:43:54;13.10;;;7.00;;
39266;SDS011;24967;51.154;13.812;2022-10-31T12:46:29;15.48;;;6.07;;
39266;SDS011;24967;51.154;13.812;2022-10-31T12:49:15;13.13;;;6.50;;
39266;SDS011;24967;51.154;13.812;2022-10-31T12:51:56;12.45;;;6.18;;
39266;SDS011;24967;51.154;13.812;2022-10-31T12:54:39;13.63;;;6.20;;
39266;SDS011;24967;51.154;13.812;2022-10-31T12:57:21;13.25;;;5.82;;
39266;SDS011;24967;51.154;13.812;2022-10-31T12:59:56;8.00;;;5.70;;
39266;SDS011;24967;51.154;13.812;2022-10-31T13:02:29;12.57;;;6.03;;
39266;SDS011;24967;51.154;13.812;2022-10-31T13:05:22;14.35;;;6.07;;
39266;SDS011;24967;51.154;13.812;2022-10-31T13:07:55;12.80;;;6.05;;
39266;SDS011;24967;51.154;13.812;2022-10-31T13:10:27;11.57;;;5.22;;
39266;SDS011;24967;51.154;13.812;2022-10-31T13:13:00;10.95;;;5.70;;
39266;SDS011;24967;51.154;13.812;2022-10-31T13:15:32;21.98;;;6.50;;
39266;SDS011;24967;51.154;13.812;2022-10-31T13:18:23;10.57;;;5.82;;
39266;SDS011;24967;51.154;13.812;2022-10-31T13:20:54;12.10;;;6.32;;
39266;SDS011;24967;51.154;13.812;2022-10-31T13:23:24;11.82;;;5.82;;
39266;SDS011;24967;51.154;13.812;2022-10-31T13:25:55;10.55;;;5.75;;
39266;SDS011;24967;51.154;13.812;2022-10-31T13:28:26;14.30;;;5.13;;
39266;SDS011;24967;51.154;13.812;2022-10-31T13:31:00;14.50;;;6.22;;
39266;SDS011;24967;51.154;13.812;2022-10-31T13:33:28;8.77;;;5.30;;
39266;SDS011;24967;51.154;13.812;2022-10-31T13:36:05;13.27;;;5.45;;
39266;SDS011;24967;51.154;13.812;2022-10-31T13:41:11;7.55;;;4.43;;
39266;SDS011;24967;51.154;13.812;2022-10-31T13:43:58;9.27;;;4.55;;
39266;SDS011;24967;51.154;13.812;2022-10-31T13:46:34;10.73;;;5.65;;
39266;SDS011;24967;51.154;13.812;2022-10-31T13:49:02;8.88;;;5.25;;
39266;SDS011;24967;51.154;13.812;2022-10-31T13:51:30;11.32;;;5.00;;
39266;SDS011;24967;51.154;13.812;2022-10-31T13:53:59;12.45;;;4.70;;
39266;SDS011;24967;51.154;13.812;2022-10-31T13:56:28;12.63;;;5.00;;
39266;SDS011;24967;51.154;13.812;2022-10-31T13:58:59;9.15;;;5.05;;
39266;SDS011;24967;51.154;13.812;2022-10-31T14:01:28;10.13;;;4.25;;
39266;SDS011;24967;51.154;13.812;2022-10-31T14:03:57;7.82;;;4.57;;
39266;SDS011;24967;51.154;13.812;2022-10-31T14:06:34;8.20;;;4.82;;
39266;SDS011;24967;51.154;13.812;2022-10-31T14:09:03;14.98;;;5.13;;
39266;SDS011;24967;51.154;13.812;2022-10-31T14:11:31;11.27;;;4.47;;
39266;SDS011;24967;51.154;13.812;2022-10-31T14:13:59;10.95;;;4.38;;
39266;SDS011;24967;51.154;13.812;2022-10-31T14:16:27;11.77;;;4.88;;
39266;SDS011;24967;51.154;13.812;2022-10-31T14:18:57;10.75;;;4.65;;
39266;SDS011;24967;51.154;13.812;2022-10-31T14:21:27;8.82;;;4.57;;
39266;SDS011;24967;51.154;13.812;2022-10-31T14:23:55;10.32;;;5.00;;
39266;SDS011;24967;51.154;13.812;2022-10-31T14:26:33;9.55;;;4.55;;
39266;SDS011;24967;51.154;13.812;2022-10-31T14:29:20;9.27;;;4.60;;
39266;SDS011;24967;51.154;13.812;2022-10-31T14:31:53;10.68;;;4.20;;
39266;SDS011;24967;51.154;13.812;2022-10-31T14:34:23;10.20;;;4.30;;
39266;SDS011;24967;51.154;13.812;2022-10-31T14:40:12;19.60;;;5.22;;
39266;SDS011;24967;51.154;13.812;2022-10-31T14:42:53;17.88;;;4.88;;
39266;SDS011;24967;51.154;13.812;2022-10-31T14:45:36;13.07;;;5.07;;
39266;SDS011;24967;51.154;13.812;2022-10-31T14:48:14;10.98;;;5.15;;
39266;SDS011;24967;51.154;13.812;2022-10-31T14:50:55;9.88;;;5.28;;
39266;SDS011;24967;51.154;13.812;2022-10-31T14:53:24;7.93;;;4.25;;
39266;SDS011;24967;51.154;13.812;2022-10-31T14:58:22;31.92;;;5.65;;
39266;SDS011;24967;51.154;13.812;2022-10-31T15:00:56;38.33;;;6.47;;
39266;SDS011;24967;51.154;13.812;2022-10-31T15:03:25;19.40;;;4.57;;
39266;SDS011;24967;51.154;13.812;2022-10-31T15:05:58;9.23;;;4.53;;
39266;SDS011;24967;51.154;13.812;2022-10-31T15:08:35;11.68;;;4.22;;
39266;SDS011;24967;51.154;13.812;2022-10-31T15:11:10;9.90;;;4.53;;